createdAt,value
2022-08-24T00:01:20.943Z,8.30
2022-08-24T00:04:13.780Z,5.30
2022-08-24T00:07:13.854Z,7.53
2022-08-24T00:10:20.545Z,5.57
2022-08-24T00:13:11.968Z,7.47
2022-08-24T00:16:03.350Z,6.23
2022-08-24T00:18:56.147Z,7.60
2022-08-24T00:21:49.180Z,6.80
2022-08-24T00:24:40.890Z,6.23
2022-08-24T00:27:32.443Z,6.53
2022-08-24T00:30:24.340Z,6.63
2022-08-24T00:33:15.859Z,6.43
2022-08-24T00:36:06.980Z,6.73
2022-08-24T00:38:59.665Z,7.60
2022-08-24T00:41:51.902Z,8.20
2022-08-24T00:44:43.072Z,7.97
2022-08-24T00:47:40.758Z,6.90
2022-08-24T00:50:40.754Z,7.57
2022-08-24T00:53:33.696Z,8.00
2022-08-24T00:56:30.442Z,7.70
2022-08-24T00:59:23.790Z,6.10
2022-08-24T01:02:18.380Z,7.90
2022-08-24T01:05:10.758Z,8.07
2022-08-24T01:08:02.961Z,9.90
2022-08-24T01:10:55.646Z,8.50
2022-08-24T01:13:49.929Z,7.23
2022-08-24T01:17:04.126Z,8.20
2022-08-24T01:19:56.627Z,6.70
2022-08-24T01:22:58.057Z,8.10
2022-08-24T01:25:50.833Z,7.30
2022-08-24T01:28:43.571Z,6.63
2022-08-24T01:31:36.274Z,6.63
2022-08-24T01:34:27.505Z,6.00
2022-08-24T01:37:18.733Z,9.17
2022-08-24T01:40:10.344Z,9.20
2022-08-24T01:43:04.370Z,6.37
2022-08-24T01:45:55.440Z,9.87
2022-08-24T01:48:46.944Z,8.53
2022-08-24T01:51:38.216Z,7.73
2022-08-24T01:54:31.425Z,10.73
2022-08-24T01:57:25.231Z,9.97
2022-08-24T02:00:18.512Z,8.87
2022-08-24T02:03:10.273Z,9.30
2022-08-24T02:06:01.592Z,6.50
2022-08-24T02:08:52.877Z,6.63
2022-08-24T02:11:44.370Z,11.80
2022-08-24T02:14:35.632Z,10.03
2022-08-24T02:17:28.192Z,6.40
2022-08-24T02:20:21.580Z,11.03
2022-08-24T02:23:13.866Z,14.07
2022-08-24T02:26:05.244Z,9.70
2022-08-24T02:28:56.806Z,11.43
2022-08-24T02:31:50.377Z,14.80
2022-08-24T02:34:44.102Z,16.20
2022-08-24T02:37:35.589Z,17.53
2022-08-24T02:40:34.773Z,15.43
2022-08-24T02:43:26.660Z,12.43
2022-08-24T02:46:18.696Z,14.73
2022-08-24T02:49:11.805Z,18.03
2022-08-24T02:52:05.483Z,15.30
2022-08-24T02:54:57.084Z,11.50
2022-08-24T02:57:48.950Z,13.63
2022-08-24T03:00:41.203Z,15.43
2022-08-24T03:03:32.916Z,11.73
2022-08-24T03:06:23.931Z,15.67
2022-08-24T03:09:17.086Z,12.17
2022-08-24T03:12:08.483Z,15.30
2022-08-24T03:15:00.053Z,13.23
2022-08-24T03:17:51.906Z,12.40
2022-08-24T03:20:43.926Z,14.03
2022-08-24T03:23:35.683Z,13.27
2022-08-24T03:26:28.545Z,11.20
2022-08-24T03:29:23.979Z,13.53
2022-08-24T03:32:14.917Z,11.73
2022-08-24T03:35:06.341Z,10.00
2022-08-24T03:37:57.639Z,10.40
2022-08-24T03:40:48.861Z,11.93
2022-08-24T03:43:48.920Z,11.23
2022-08-24T03:46:40.100Z,12.77
2022-08-24T03:49:31.113Z,10.47
2022-08-24T03:52:22.263Z,15.07
2022-08-24T03:55:15.692Z,12.97
2022-08-24T03:58:07.021Z,12.27
2022-08-24T04:00:59.590Z,11.43
2022-08-24T04:03:53.443Z,13.80
2022-08-24T04:06:46.872Z,12.87
2022-08-24T04:09:38.098Z,13.30
2022-08-24T04:12:29.232Z,11.80
2022-08-24T04:15:20.439Z,12.03
2022-08-24T04:18:12.957Z,19.33
2022-08-24T04:21:04.864Z,16.87
2022-08-24T04:23:56.636Z,15.97
2022-08-24T04:26:47.857Z,18.03
2022-08-24T04:29:38.979Z,13.13
2022-08-24T04:32:30.355Z,16.10
2022-08-24T04:35:22.705Z,14.30
2022-08-24T04:38:14.145Z,15.53
2022-08-24T04:41:06.207Z,16.13
2022-08-24T04:43:57.796Z,13.10
2022-08-24T04:46:48.864Z,12.47
2022-08-24T04:49:40.082Z,12.53
2022-08-24T04:52:32.652Z,16.20
2022-08-24T04:55:23.782Z,13.23
2022-08-24T04:58:15.621Z,14.93
2022-08-24T05:01:08.593Z,13.67
2022-08-24T05:04:00.550Z,12.93
2022-08-24T05:06:53.277Z,11.83
2022-08-24T05:09:47.298Z,19.20
2022-08-24T05:12:38.871Z,15.80
2022-08-24T05:15:31.288Z,13.63
2022-08-24T05:18:22.521Z,16.37
2022-08-24T05:21:14.854Z,17.27
2022-08-24T05:24:06.419Z,14.83
2022-08-24T05:27:02.247Z,17.53
2022-08-24T05:29:53.945Z,23.70
2022-08-24T05:32:45.090Z,16.40
2022-08-24T05:35:39.176Z,21.57
2022-08-24T05:38:35.132Z,17.20
2022-08-24T05:41:26.623Z,14.93
2022-08-24T05:44:19.610Z,12.73
2022-08-24T05:47:10.926Z,11.73
2022-08-24T05:50:02.638Z,12.73
2022-08-24T05:52:53.988Z,10.97
2022-08-24T05:55:45.187Z,14.17
2022-08-24T05:58:37.536Z,12.83
2022-08-24T06:01:30.310Z,12.93
2022-08-24T06:04:21.553Z,13.00
2022-08-24T06:07:13.020Z,12.43
2022-08-24T06:10:32.757Z,15.30
2022-08-24T06:13:16.012Z,12.93
2022-08-24T06:16:20.846Z,11.20
2022-08-24T06:19:17.904Z,17.67
2022-08-24T06:22:09.435Z,17.83
2022-08-24T06:25:20.617Z,17.77
2022-08-24T06:28:11.890Z,20.13
2022-08-24T06:31:04.284Z,19.77
2022-08-24T06:33:55.858Z,15.50
2022-08-24T06:36:48.714Z,17.57
2022-08-24T06:39:40.122Z,18.70
2022-08-24T06:42:31.677Z,19.30
2022-08-24T06:45:23.318Z,19.17
2022-08-24T06:48:15.004Z,18.87
2022-08-24T06:51:10.164Z,19.37
2022-08-24T06:54:02.960Z,22.73
2022-08-24T06:56:55.329Z,24.60
2022-08-24T06:59:46.509Z,24.07
2022-08-24T07:02:37.677Z,24.50
2022-08-24T07:05:28.922Z,24.93
2022-08-24T07:08:20.660Z,28.23
2022-08-24T07:11:15.097Z,25.43
2022-08-24T07:14:06.812Z,27.03
2022-08-24T07:16:57.955Z,28.67
2022-08-24T07:19:49.308Z,32.73
2022-08-24T07:22:40.763Z,30.30
2022-08-24T07:25:33.073Z,28.27
2022-08-24T07:28:32.074Z,25.93
2022-08-24T07:31:23.801Z,24.97
2022-08-24T07:34:15.324Z,24.83
2022-08-24T07:37:07.903Z,26.13
2022-08-24T07:39:59.461Z,21.43
2022-08-24T07:42:53.038Z,19.33
2022-08-24T07:45:45.992Z,20.40
2022-08-24T07:48:37.806Z,24.80
2022-08-24T07:54:20.784Z,16.90
2022-08-24T07:57:11.797Z,17.23
2022-08-24T08:00:04.892Z,20.30
2022-08-24T08:02:57.971Z,16.97
2022-08-24T08:05:49.650Z,16.43
2022-08-24T08:08:42.036Z,18.60
2022-08-24T08:11:33.751Z,17.13
2022-08-24T08:14:25.411Z,19.17
2022-08-24T08:17:17.195Z,20.07
2022-08-24T08:20:10.781Z,19.20
2022-08-24T08:23:20.105Z,19.37
2022-08-24T08:26:15.317Z,21.37
2022-08-24T08:29:06.772Z,17.57
2022-08-24T08:31:58.478Z,20.77
2022-08-24T08:34:49.997Z,17.53
2022-08-24T08:37:42.688Z,21.70
2022-08-24T08:40:43.903Z,20.67
2022-08-24T08:43:42.582Z,17.80
2022-08-24T08:46:41.429Z,18.87
2022-08-24T08:49:48.463Z,15.37
2022-08-24T08:52:54.160Z,18.80
2022-08-24T08:55:48.853Z,17.23
2022-08-24T08:58:53.726Z,17.87
2022-08-24T09:01:54.371Z,18.73
2022-08-24T09:04:51.728Z,19.83
2022-08-24T09:07:48.523Z,19.37
2022-08-24T09:10:49.936Z,18.83
2022-08-24T09:13:59.661Z,22.63
2022-08-24T09:16:56.699Z,18.20
2022-08-24T09:19:56.780Z,20.07
2022-08-24T09:22:49.526Z,23.40
2022-08-24T09:25:47.258Z,22.07
2022-08-24T09:28:46.750Z,21.70
2022-08-24T09:31:54.723Z,26.47
2022-08-24T09:34:53.068Z,19.27
2022-08-24T09:37:54.761Z,17.70
2022-08-24T09:41:01.247Z,20.60
2022-08-24T09:44:10.391Z,20.70
2022-08-24T09:47:11.911Z,14.40
2022-08-24T09:50:22.003Z,15.70
2022-08-24T09:53:32.812Z,18.07
2022-08-24T09:56:39.002Z,16.57
2022-08-24T09:59:51.456Z,20.97
2022-08-24T10:02:54.762Z,19.23
2022-08-24T10:06:10.621Z,18.93
2022-08-24T10:09:08.245Z,17.33
2022-08-24T10:12:03.418Z,19.40
2022-08-24T10:14:58.956Z,19.13
2022-08-24T10:18:00.418Z,17.70
2022-08-24T10:21:00.966Z,18.43
2022-08-24T10:24:03.226Z,17.10
2022-08-24T10:27:06.426Z,17.30
2022-08-24T10:30:04.429Z,14.90
2022-08-24T10:33:01.163Z,15.23
2022-08-24T10:36:10.439Z,16.83
2022-08-24T10:39:29.261Z,14.10
2022-08-24T10:42:52.019Z,18.27
2022-08-24T10:46:16.433Z,13.87
2022-08-24T10:49:38.127Z,17.57
2022-08-24T10:52:46.948Z,14.37
2022-08-24T10:55:39.464Z,13.97
2022-08-24T10:58:43.805Z,15.27
2022-08-24T11:01:36.957Z,12.10
2022-08-24T11:04:30.002Z,10.27
2022-08-24T11:07:22.547Z,11.40
2022-08-24T11:10:24.540Z,12.53
2022-08-24T11:13:22.495Z,10.80
2022-08-24T11:16:24.027Z,33.17
2022-08-24T11:19:16.235Z,17.80
2022-08-24T11:22:28.177Z,11.13
2022-08-24T11:25:23.696Z,11.68
2022-08-24T11:28:21.716Z,10.85
2022-08-24T11:31:14.235Z,10.80
2022-08-24T11:34:08.660Z,13.45
2022-08-24T11:37:00.124Z,13.82
2022-08-24T11:39:51.284Z,11.75
2022-08-24T11:43:05.573Z,10.13
2022-08-24T11:46:04.908Z,9.13
2022-08-24T11:49:03.836Z,12.02
2022-08-24T11:51:58.482Z,13.68
2022-08-24T11:55:19.027Z,10.52
2022-08-24T11:58:21.153Z,12.65
2022-08-24T12:01:18.920Z,10.18
2022-08-24T12:04:16.114Z,12.20
2022-08-24T12:07:12.635Z,15.57
2022-08-24T12:11:00.565Z,14.27
2022-08-24T12:13:55.902Z,10.32
2022-08-24T12:16:52.980Z,9.70
2022-08-24T12:19:47.514Z,10.95
2022-08-24T12:22:40.363Z,11.65
2022-08-24T12:25:51.149Z,12.70
2022-08-24T12:28:43.897Z,11.10
2022-08-24T12:31:40.926Z,10.98
2022-08-24T12:34:40.964Z,9.48
2022-08-24T12:37:33.814Z,12.32
2022-08-24T12:40:28.127Z,12.38
2022-08-24T12:43:21.488Z,9.43
2022-08-24T12:46:15.242Z,17.65
2022-08-24T12:49:12.407Z,9.60
2022-08-24T12:52:12.701Z,11.95
2022-08-24T12:55:21.001Z,11.65
2022-08-24T12:58:34.598Z,9.77
2022-08-24T13:01:29.524Z,11.10
2022-08-24T13:04:32.593Z,10.10
2022-08-24T13:07:30.774Z,11.50
2022-08-24T13:10:41.985Z,11.82
2022-08-24T13:13:45.974Z,11.63
2022-08-24T13:16:48.887Z,10.45
2022-08-24T13:19:42.380Z,15.30
2022-08-24T13:22:54.796Z,11.15
2022-08-24T13:25:55.793Z,11.55
2022-08-24T13:28:49.654Z,9.02
2022-08-24T13:31:52.453Z,9.15
2022-08-24T13:34:45.102Z,12.63
2022-08-24T13:37:38.653Z,12.20
2022-08-24T13:40:30.652Z,14.55
2022-08-24T13:43:31.512Z,9.95
2022-08-24T13:46:26.218Z,13.38
2022-08-24T13:49:22.383Z,11.43
2022-08-24T13:52:22.442Z,12.00
2022-08-24T13:55:23.259Z,11.90
2022-08-24T13:58:19.737Z,12.10
2022-08-24T14:01:25.480Z,14.45
2022-08-24T14:04:29.155Z,12.90
2022-08-24T14:07:21.660Z,12.30
2022-08-24T14:10:15.284Z,9.98
2022-08-24T14:13:16.484Z,12.40
2022-08-24T14:16:30.935Z,12.63
2022-08-24T14:19:26.972Z,13.30
2022-08-24T14:22:23.261Z,13.30
2022-08-24T14:25:43.281Z,14.75
2022-08-24T14:28:40.000Z,11.38
2022-08-24T14:31:31.661Z,12.30
2022-08-24T14:34:26.620Z,12.82
2022-08-24T14:37:21.759Z,12.50
2022-08-24T14:40:17.230Z,10.98
2022-08-24T14:43:22.273Z,18.83
2022-08-24T14:46:17.898Z,14.02
2022-08-24T14:49:15.565Z,11.55
2022-08-24T14:52:31.520Z,10.98
2022-08-24T14:55:29.531Z,58.55
2022-08-24T14:58:29.048Z,9.68
2022-08-24T15:01:32.728Z,11.35
2022-08-24T15:04:45.183Z,13.10
2022-08-24T15:07:38.158Z,8.30
2022-08-24T15:10:31.437Z,11.35
2022-08-24T15:13:29.840Z,9.75
2022-08-24T15:16:22.841Z,9.68
2022-08-24T15:19:17.774Z,11.52
2022-08-24T15:22:23.022Z,8.07
2022-08-24T15:25:19.865Z,8.65
2022-08-24T15:28:14.021Z,10.85
2022-08-24T15:31:07.092Z,9.07
2022-08-24T15:33:59.542Z,10.98
2022-08-24T15:36:59.689Z,10.80
2022-08-24T15:39:51.172Z,10.45
2022-08-24T15:42:43.932Z,15.73
2022-08-24T15:45:36.876Z,14.50
2022-08-24T15:48:28.429Z,8.35
2022-08-24T15:51:37.371Z,8.63
2022-08-24T15:54:31.714Z,10.10
2022-08-24T15:57:27.940Z,11.52
2022-08-24T16:00:44.597Z,9.70
2022-08-24T16:03:46.518Z,7.82
2022-08-24T16:06:40.003Z,9.32
2022-08-24T16:09:37.615Z,10.35
2022-08-24T16:12:32.438Z,28.33
2022-08-24T16:15:25.376Z,7.35
2022-08-24T16:18:17.453Z,11.45
2022-08-24T16:21:14.349Z,11.05
2022-08-24T16:24:07.748Z,10.75
2022-08-24T16:27:01.395Z,9.88
2022-08-24T16:29:55.951Z,6.78
2022-08-24T16:32:55.046Z,13.82
2022-08-24T16:35:46.335Z,13.50
2022-08-24T16:38:38.801Z,11.75
2022-08-24T16:41:30.029Z,9.10
2022-08-24T16:44:21.370Z,10.90
2022-08-24T16:47:17.808Z,14.20
2022-08-24T16:50:10.941Z,8.13
2022-08-24T16:53:02.482Z,7.72
2022-08-24T16:55:53.849Z,12.68
2022-08-24T16:58:47.062Z,7.55
2022-08-24T17:01:38.578Z,9.75
2022-08-24T17:04:30.695Z,9.32
2022-08-24T17:07:25.111Z,7.75
2022-08-24T17:10:17.288Z,9.68
2022-08-24T17:13:08.808Z,10.93
2022-08-24T17:16:00.577Z,8.18
2022-08-24T17:18:51.801Z,11.70
2022-08-24T17:21:42.965Z,8.18
2022-08-24T17:24:35.820Z,7.32
2022-08-24T17:27:29.797Z,6.93
2022-08-24T17:30:23.059Z,9.18
2022-08-24T17:33:15.457Z,9.48
2022-08-24T17:36:07.333Z,10.32
2022-08-24T17:39:07.401Z,7.50
2022-08-24T17:42:01.881Z,7.55
2022-08-24T17:44:53.415Z,7.65
2022-08-24T17:47:45.148Z,7.55
2022-08-24T17:50:36.124Z,8.90
2022-08-24T17:53:27.361Z,8.33
2022-08-24T17:56:19.197Z,9.20
2022-08-24T17:59:23.630Z,11.70
2022-08-24T18:02:14.838Z,6.60
2022-08-24T18:05:07.497Z,7.47
2022-08-24T18:07:59.334Z,7.60
2022-08-24T18:10:51.332Z,7.70
2022-08-24T18:13:43.940Z,8.00
2022-08-24T18:16:36.791Z,9.10
2022-08-24T18:19:28.053Z,8.83
2022-08-24T18:22:19.640Z,10.93
2022-08-24T18:25:13.184Z,9.57
2022-08-24T18:28:04.595Z,7.87
2022-08-24T18:30:56.432Z,10.60
2022-08-24T18:34:10.297Z,9.63
2022-08-24T18:37:03.271Z,7.47
2022-08-24T18:39:54.646Z,9.23
2022-08-24T18:42:45.980Z,9.57
2022-08-24T18:45:37.315Z,9.47
2022-08-24T18:48:28.453Z,11.90
2022-08-24T18:51:20.800Z,10.27
2022-08-24T18:54:15.700Z,9.63
2022-08-24T18:57:08.662Z,10.43
2022-08-24T19:00:00.217Z,9.73
2022-08-24T19:02:51.508Z,11.53
2022-08-24T19:05:45.371Z,11.27
2022-08-24T19:08:37.202Z,15.93
2022-08-24T19:11:29.861Z,11.03
2022-08-24T19:14:22.141Z,10.97
2022-08-24T19:17:13.408Z,11.77
2022-08-24T19:20:05.222Z,11.43
2022-08-24T19:22:57.272Z,12.10
2022-08-24T19:25:49.398Z,12.70
2022-08-24T19:28:42.376Z,10.83
2022-08-24T19:31:37.119Z,10.50
2022-08-24T19:34:29.661Z,14.03
2022-08-24T19:37:21.701Z,12.43
2022-08-24T19:40:14.216Z,12.07
2022-08-24T19:43:05.668Z,12.00
2022-08-24T19:46:03.292Z,11.33
2022-08-24T19:48:54.583Z,12.63
2022-08-24T19:51:45.956Z,11.57
2022-08-24T19:54:37.937Z,12.87
2022-08-24T19:57:55.386Z,12.43
2022-08-24T20:00:51.603Z,15.93
2022-08-24T20:03:44.500Z,13.07
2022-08-24T20:06:36.433Z,12.50
2022-08-24T20:09:28.893Z,13.57
2022-08-24T20:12:20.522Z,17.20
2022-08-24T20:15:12.494Z,15.67
2022-08-24T20:18:04.569Z,15.87
2022-08-24T20:20:57.155Z,15.70
2022-08-24T20:23:48.472Z,15.23
2022-08-24T20:26:42.636Z,15.40
2022-08-24T20:29:34.240Z,14.60
2022-08-24T20:32:26.015Z,15.17
2022-08-24T20:35:17.429Z,15.03
2022-08-24T20:38:13.254Z,13.80
2022-08-24T20:41:04.473Z,14.03
2022-08-24T20:43:55.678Z,17.87
2022-08-24T20:46:47.549Z,12.70
2022-08-24T20:49:39.298Z,13.90
2022-08-24T20:52:30.782Z,12.90
2022-08-24T20:55:23.960Z,16.20
2022-08-24T20:58:16.490Z,12.67
2022-08-24T21:01:08.389Z,14.10
2022-08-24T21:04:04.736Z,11.83
2022-08-24T21:06:56.987Z,14.57
2022-08-24T21:09:48.341Z,13.50
2022-08-24T21:12:50.776Z,13.23
2022-08-24T21:15:42.461Z,12.63
2022-08-24T21:18:33.567Z,15.63
2022-08-24T21:21:24.875Z,12.57
2022-08-24T21:24:16.690Z,13.00
2022-08-24T21:27:08.032Z,13.07
2022-08-24T21:30:00.668Z,13.37
2022-08-24T21:33:09.615Z,12.77
2022-08-24T21:36:00.898Z,12.03
2022-08-24T21:38:54.522Z,11.47
2022-08-24T21:41:46.139Z,13.37
2022-08-24T21:44:37.857Z,13.97
2022-08-24T21:47:30.862Z,14.27
2022-08-24T21:50:25.539Z,11.53
2022-08-24T21:53:17.217Z,12.30
2022-08-24T21:56:08.774Z,14.03
2022-08-24T21:59:01.542Z,12.87
2022-08-24T22:01:52.919Z,14.67
2022-08-24T22:04:45.379Z,11.47
2022-08-24T22:07:36.779Z,11.80
2022-08-24T22:10:27.853Z,12.23
2022-08-24T22:13:19.149Z,11.43
2022-08-24T22:16:11.354Z,13.07
2022-08-24T22:19:02.612Z,10.87
2022-08-24T22:21:57.446Z,10.87
2022-08-24T22:24:48.944Z,12.40
2022-08-24T22:27:40.389Z,11.37
2022-08-24T22:30:33.110Z,10.63
2022-08-24T22:33:25.936Z,15.43
2022-08-24T22:36:18.088Z,13.80
2022-08-24T22:39:12.594Z,11.77
2022-08-24T22:42:04.695Z,13.13
2022-08-24T22:44:57.234Z,11.13
2022-08-24T22:47:48.672Z,14.57
2022-08-24T22:50:43.364Z,11.37
2022-08-24T22:53:34.629Z,11.80
2022-08-24T22:56:28.516Z,11.43
2022-08-24T22:59:21.154Z,11.00
2022-08-24T23:02:13.524Z,12.00
2022-08-24T23:05:05.168Z,14.40
2022-08-24T23:07:56.687Z,17.03
2022-08-24T23:10:50.379Z,11.30
2022-08-24T23:13:42.903Z,11.40
2022-08-24T23:16:35.083Z,11.67
2022-08-24T23:19:44.135Z,12.10
2022-08-24T23:22:36.822Z,12.77
2022-08-24T23:25:58.197Z,12.23
2022-08-24T23:28:51.232Z,15.37
2022-08-24T23:31:42.882Z,13.10
2022-08-24T23:34:34.524Z,12.53
2022-08-24T23:37:25.838Z,13.87
2022-08-24T23:40:17.435Z,12.73
2022-08-24T23:43:08.879Z,14.47
2022-08-24T23:46:01.463Z,12.10
2022-08-24T23:48:55.494Z,13.63
2022-08-24T23:51:48.037Z,12.03
2022-08-24T23:54:40.376Z,12.53
2022-08-24T23:57:31.492Z,16.37
